Time;durP1;ratioP1;P1;durP2;ratioP2;P2;SDS_P1;SDS_P2;PMS_P1;PMS_P2;Temp;Humidity;BMP_temperature;BMP_pressure;BME280_temperature;BME280_humidity;BME280_pressure;Samples;Min_cycle;Max_cycle;Signal;HPM_P1;HPM_P2
2022/07/17 14:42:58;;;;;;;5.45;5.07;;;42.20;21.70;;;34.22;22.14;96164.34;4980940;28;22085;-47
2022/07/17 14:45:26;;;;;;;7.05;4.93;;;42.10;20.80;;;34.34;21.55;96163.88;4796110;28;2473537;-48
2022/07/17 14:47:52;;;;;;;8.18;5.05;;;42.50;20.00;;;34.20;22.19;96169.53;5004904;28;20018;-47
2022/07/17 14:50:21;;;;;;;6.40;5.25;;;43.10;19.50;;;34.40;21.58;96167.00;4985553;28;20033;-49
2022/07/17 14:52:47;;;;;;;6.38;5.88;;;43.90;18.90;;;34.79;20.64;96177.78;4984221;28;20037;-51
2022/07/17 14:55:30;;;;;;;7.05;6.47;;;44.20;18.40;;;35.08;20.58;96177.56;4984140;28;20420;-48
2022/07/17 14:57:59;;;;;;;6.50;5.82;;;44.70;18.00;;;34.16;20.88;96172.31;4985950;28;20026;-51
2022/07/17 15:00:28;;;;;;;5.53;5.13;;;45.20;17.50;;;34.23;20.95;96165.94;5000933;28;20112;-54
2022/07/17 15:02:54;;;;;;;7.18;6.53;;;45.70;17.10;;;34.94;20.42;96170.13;4981229;28;20052;-52
2022/07/17 15:05:35;;;;;;;6.00;5.50;;;46.10;16.90;;;35.21;20.67;96167.53;4987336;28;20116;-54
2022/07/17 15:08:01;;;;;;;7.15;6.65;;;46.70;16.70;;;34.95;20.33;96166.19;4964500;28;20033;-51
2022/07/17 15:10:27;;;;;;;6.50;5.90;;;47.10;16.30;;;35.49;20.08;96157.34;5000434;28;20063;-49
2022/07/17 15:12:53;;;;;;;6.03;5.65;;;47.50;16.00;;;35.62;19.86;96175.78;4984839;28;20026;-52
2022/07/17 15:15:20;;;;;;;7.25;5.60;;;47.90;15.70;;;35.78;19.97;96171.66;4985455;28;20064;-47
2022/07/17 15:20:36;;;;;;;7.38;6.60;;;48.70;15.20;;;35.26;20.08;96152.44;4987327;28;20456;-52
2022/07/17 15:23:03;;;;;;;7.53;6.93;;;49.10;15.00;;;35.47;19.98;96161.28;4986912;28;20377;-51
2022/07/17 15:25:31;;;;;;;7.47;6.57;;;49.50;14.80;;;35.71;19.91;96158.66;4987300;28;20018;-48
2022/07/17 15:28:06;;;;;;;8.18;7.57;;;49.80;14.40;;;35.97;19.80;96159.13;4969737;28;20025;-48
2022/07/17 15:30:32;;;;;;;7.20;6.70;;;50.40;14.30;;;35.86;19.00;96162.81;5002522;28;20034;-49
2022/07/17 15:32:59;;;;;;;8.55;8.00;;;50.90;14.00;;;35.05;19.63;96157.00;4987716;28;20030;-48
2022/07/17 15:35:26;;;;;;;8.15;7.55;;;51.30;13.60;;;35.47;19.74;96157.75;4966916;28;20408;-47
2022/07/17 15:37:54;;;;;;;8.43;7.93;;;51.60;13.40;;;35.90;19.40;96158.00;4985346;28;20029;-49
2022/07/17 15:40:22;;;;;;;9.15;8.45;;;52.10;13.30;;;36.30;18.15;96165.81;4968835;28;20096;-48
2022/07/17 15:42:51;;;;;;;10.13;9.63;;;52.60;12.90;;;36.57;18.46;96160.25;4984685;28;20050;-49
2022/07/17 15:45:25;;;;;;;10.77;10.10;;;53.10;12.80;;;37.49;17.81;96159.88;4986162;28;20034;-50
2022/07/17 15:47:57;;;;;;;11.65;11.00;;;53.70;12.70;;;37.67;17.81;96165.03;4980951;28;20034;-50
2022/07/17 15:50:29;;;;;;;12.82;12.05;;;54.20;12.50;;;37.14;17.40;96155.72;4999049;23;20054;-54
2022/07/17 15:52:57;;;;;;;12.45;11.75;;;54.50;12.20;;;36.58;17.52;96154.31;4980101;28;20034;-55
2022/07/17 15:55:23;;;;;;;13.13;12.43;;;54.60;11.90;;;37.00;17.34;96162.34;4969062;28;20474;-55
2022/07/17 15:57:49;;;;;;;13.82;12.85;;;54.50;11.90;;;36.83;17.09;96156.66;4966405;28;20053;-52
2022/07/17 16:00:24;;;;;;;11.85;11.00;;;54.50;11.70;;;37.29;17.13;96162.59;4972640;28;20173;-53
2022/07/17 16:02:59;;;;;;;11.02;10.43;;;54.40;11.70;;;37.12;16.85;96164.50;4971738;28;20056;-53
2022/07/17 16:05:24;;;;;;;10.75;10.15;;;54.30;11.50;;;37.26;16.24;96158.69;4987243;28;20464;-53
2022/07/17 16:07:51;;;;;;;10.13;9.43;;;54.30;11.40;;;37.19;17.12;96158.03;4972624;28;20049;-55
2022/07/17 16:10:17;;;;;;;10.10;9.43;;;54.20;11.40;;;36.64;17.11;96159.38;4987119;28;20026;-51
2022/07/17 16:12:46;;;;;;;9.85;9.25;;;54.10;11.40;;;36.97;16.59;96158.38;4971530;28;20037;-49
2022/07/17 16:15:11;;;;;;;10.52;9.80;;;54.10;11.20;;;36.92;16.97;96158.88;4971449;28;20061;-50
2022/07/17 16:17:37;;;;;;;9.93;9.32;;;54.00;11.20;;;36.17;17.46;96159.25;4971041;28;20477;-49
2022/07/17 16:20:07;;;;;;;10.63;10.02;;;54.00;11.20;;;35.90;17.92;96154.47;4972318;28;20026;-52
2022/07/17 16:22:33;;;;;;;10.38;9.77;;;53.90;11.30;;;35.87;17.88;96152.53;4987160;28;20037;-54
2022/07/17 16:25:01;;;;;;;9.77;9.25;;;53.80;11.20;;;36.24;17.66;96157.19;4971524;28;20030;-54
2022/07/17 16:27:27;;;;;;;8.68;8.18;;;53.80;11.20;;;35.16;18.67;96138.31;4967317;28;20099;-53
2022/07/17 16:29:53;;;;;;;9.13;8.23;;;53.70;11.20;;;36.13;18.12;96146.25;4967439;28;20018;-52
2022/07/17 16:32:19;;;;;;;10.20;9.52;;;53.60;11.30;;;36.21;18.05;96140.59;4963700;28;20026;-53
2022/07/17 16:34:54;;;;;;;10.15;9.43;;;53.60;11.30;;;36.36;17.46;96136.41;4982124;28;20054;-52
2022/07/17 16:37:26;;;;;;;8.93;8.40;;;53.70;11.40;;;36.11;18.44;96143.09;4966290;28;20030;-53
2022/07/17 16:39:52;;;;;;;9.35;8.77;;;53.60;11.30;;;36.20;17.21;96139.00;4969137;28;20027;-52
2022/07/17 16:42:21;;;;;;;8.65;8.05;;;53.60;11.20;;;35.67;17.21;96135.78;4954066;28;20034;-50
2022/07/17 16:44:55;;;;;;;9.35;8.52;;;53.60;11.10;;;35.34;17.06;96131.78;4953201;28;20038;-53
2022/07/17 16:47:20;;;;;;;9.05;8.52;;;53.40;11.00;;;35.67;17.41;96135.78;4953812;28;20623;-55
2022/07/17 16:49:46;;;;;;;9.05;8.30;;;53.30;11.00;;;35.85;17.09;96136.31;4968865;28;20046;-54
2022/07/17 16:52:19;;;;;;;8.95;8.35;;;53.40;11.10;;;34.94;18.11;96137.75;4952916;28;20048;-54
2022/07/17 16:54:45;;;;;;;7.05;6.65;;;53.40;11.50;;;35.26;17.40;96135.81;4952404;28;20077;-54
2022/07/17 16:57:13;;;;;;;7.47;7.00;;;53.10;10.80;;;34.82;17.77;96129.13;4951843;28;20030;-56
2022/07/17 16:59:39;;;;;;;7.82;7.32;;;53.00;10.80;;;35.32;17.59;96139.72;4956321;28;20049;-54
2022/07/17 17:02:11;;;;;;;8.63;8.02;;;53.00;10.80;;;35.12;17.69;96131.25;4962196;28;20484;-52
2022/07/17 17:04:37;;;;;;;6.78;6.28;;;53.00;11.00;;;34.67;17.26;96134.03;4970265;28;20050;-49
2022/07/17 17:07:03;;;;;;;6.45;6.05;;;52.90;10.80;;;34.54;17.80;96125.47;4972880;28;20169;-54
2022/07/17 17:09:32;;;;;;;7.22;6.72;;;52.80;10.80;;;35.25;17.22;96135.03;4951203;28;20027;-49
2022/07/17 17:12:04;;;;;;;5.80;5.40;;;52.70;10.80;;;35.00;17.67;96125.00;4951972;28;20381;-51
2022/07/17 17:14:30;;;;;;;5.20;4.80;;;52.50;10.80;;;34.08;18.52;96130.09;4967241;28;20031;-52
2022/07/17 17:16:59;;;;;;;3.97;3.40;;;51.80;10.80;;;32.82;19.42;96131.72;4966694;28;20096;-48
2022/07/17 17:19:27;;;;;;;3.42;3.13;;;49.50;11.30;;;32.24;20.22;96128.13;4952108;28;20022;-51
2022/07/17 17:21:55;;;;;;;2.97;2.78;;;46.80;12.20;;;31.42;20.73;96127.91;4966693;28;20062;-50
2022/07/17 17:24:27;;;;;;;3.70;2.80;;;44.40;13.00;;;31.25;21.25;96126.63;4966784;28;20025;-52
2022/07/17 17:26:55;;;;;;;2.75;2.42;;;42.20;14.00;;;30.78;21.75;96122.84;4950943;28;20036;-47
2022/07/17 17:29:21;;;;;;;2.50;2.30;;;40.50;14.80;;;30.40;21.88;96124.88;4938130;28;20058;-47
2022/07/17 17:31:47;;;;;;;2.90;2.65;;;39.00;15.40;;;30.14;22.60;96122.25;4943318;28;24836;-51
2022/07/17 17:34:13;;;;;;;5.35;2.38;;;37.80;16.10;;;29.72;22.89;96118.72;4968167;28;20033;-47
2022/07/17 17:36:39;;;;;;;3.60;2.60;;;36.80;16.70;;;29.64;23.91;96119.00;4973669;28;20029;-50
2022/07/17 17:39:10;;;;;;;2.60;2.40;;;36.00;17.40;;;29.43;24.30;96116.78;4958590;28;20026;-51
2022/07/17 17:41:36;;;;;;;4.72;2.58;;;35.30;18.00;;;29.20;25.12;96123.16;4958809;28;20046;-47
2022/07/17 17:44:02;;;;;;;2.90;2.60;;;34.70;18.60;;;28.87;25.74;96123.88;4975371;28;20038;-49
2022/07/17 17:46:28;;;;;;;5.03;2.30;;;34.20;19.20;;;28.67;26.46;96120.44;4962575;28;20026;-48
2022/07/17 17:48:54;;;;;;;2.40;2.20;;;33.70;19.70;;;28.51;27.41;96117.06;4957277;28;20508;-50
2022/07/17 17:51:20;;;;;;;4.28;2.40;;;33.30;20.30;;;28.41;27.51;96112.22;4971011;28;20092;-49
2022/07/17 17:53:49;;;;;;;3.08;2.30;;;32.90;20.70;;;28.25;27.92;96121.31;4970968;28;20022;-49
2022/07/17 17:56:17;;;;;;;4.30;2.38;;;32.60;21.10;;;28.03;28.88;96120.16;4968720;28;20072;-48
2022/07/17 17:58:43;;;;;;;2.38;2.17;;;32.40;21.80;;;27.75;28.00;96125.88;4953224;28;20058;-50
2022/07/17 18:01:12;;;;;;;3.05;2.10;;;32.10;21.90;;;27.58;28.52;96132.59;4970285;28;20061;-50
2022/07/17 18:03:38;;;;;;;2.92;2.10;;;31.80;22.10;;;27.33;27.92;96123.91;4960546;28;20027;-51
2022/07/17 18:06:04;;;;;;;2.72;2.53;;;31.60;22.30;;;27.30;28.38;96123.84;4951014;28;20133;-53
2022/07/17 18:08:31;;;;;;;2.13;2.00;;;31.40;22.40;;;27.24;29.32;96130.75;4951199;28;20560;-50
2022/07/17 18:10:58;;;;;;;2.85;2.53;;;31.30;22.80;;;27.08;28.01;96120.63;4951035;28;20401;-54
2022/07/17 18:13:26;;;;;;;2.45;2.15;;;31.10;22.90;;;26.94;29.39;96123.03;4960212;28;20491;-50
2022/07/17 18:15:58;;;;;;;4.03;2.10;;;30.90;23.10;;;26.89;29.43;96129.59;4966950;28;20037;-53
2022/07/17 18:18:24;;;;;;;2.50;2.30;;;30.80;23.40;;;26.68;29.10;96116.22;4952038;28;20401;-54
2022/07/17 18:20:50;;;;;;;2.10;1.90;;;30.60;23.40;;;26.60;29.36;96117.19;4952082;28;20392;-48
2022/07/17 18:23:25;;;;;;;3.20;2.10;;;30.40;23.50;;;26.50;29.73;96118.53;4951996;28;20463;-53
2022/07/17 18:25:53;;;;;;;2.15;1.95;;;30.30;23.90;;;26.40;29.81;96127.25;4951512;28;20030;-48
2022/07/17 18:28:19;;;;;;;4.40;2.33;;;30.20;23.90;;;26.33;31.15;96129.81;4923994;28;21956;-49
2022/07/17 18:30:45;;;;;;;2.35;2.10;;;30.00;24.20;;;26.10;30.20;96129.59;4951105;28;20029;-52
2022/07/17 18:33:23;;;;;;;2.30;2.10;;;29.90;24.30;;;25.97;31.75;96128.09;4952060;28;20429;-50
2022/07/17 18:35:49;;;;;;;5.05;2.25;;;29.70;24.80;;;25.78;32.65;96131.47;4951494;28;20114;-48
2022/07/17 18:38:24;;;;;;;2.92;2.38;;;29.60;24.90;;;25.58;34.03;96133.28;4951846;28;20160;-47
2022/07/17 18:40:57;;;;;;;3.53;2.08;;;29.40;25.70;;;25.35;33.25;96127.56;4954267;28;20470;-48
2022/07/17 18:43:29;;;;;;;2.55;1.67;;;29.20;25.80;;;25.18;34.63;96136.06;4963680;28;20037;-47
2022/07/17 18:45:58;;;;;;;7.43;2.50;;;29.00;26.10;;;25.02;35.37;96142.19;4966405;28;20381;-51
2022/07/17 18:48:27;;;;;;;2.53;2.17;;;28.80;26.40;;;24.83;35.47;96140.06;4951933;28;20038;-48
2022/07/17 18:50:58;;;;;;;4.68;2.30;;;28.60;26.80;;;24.64;35.49;96139.88;4951888;29;20031;-47
2022/07/17 18:53:29;;;;;;;2.38;1.95;;;28.40;27.10;;;24.51;35.90;96147.25;4951773;28;20089;-47
2022/07/17 18:55:55;;;;;;;4.45;2.15;;;28.20;27.30;;;24.27;36.90;96145.28;4950267;29;20037;-46
2022/07/17 18:58:33;;;;;;;3.05;1.98;;;28.00;27.60;;;24.04;37.43;96144.91;4951923;29;20034;-47
2022/07/17 19:00:59;;;;;;;2.45;2.25;;;27.80;28.20;;;23.89;37.82;96154.50;4979505;28;20109;-49
2022/07/17 19:03:24;;;;;;;4.68;2.20;;;27.60;28.30;;;23.73;38.27;96150.84;4985999;28;20018;-48
2022/07/17 19:05:50;;;;;;;3.20;2.20;;;27.40;28.60;;;23.58;38.87;96154.94;4969136;28;20062;-47
2022/07/17 19:08:21;;;;;;;5.25;2.30;;;27.20;28.90;;;23.41;39.38;96160.50;4971171;28;20041;-51
2022/07/17 19:10:47;;;;;;;3.78;1.90;;;27.10;29.20;;;23.24;39.90;96161.47;4953924;28;20018;-50
2022/07/17 19:13:18;;;;;;;3.25;2.33;;;26.90;29.50;;;23.03;40.51;96156.84;4970904;28;20030;-49
2022/07/17 19:15:47;;;;;;;3.55;2.25;;;26.70;30.00;;;22.84;41.20;96164.56;4937232;28;20034;-48
2022/07/17 19:18:13;;;;;;;3.05;2.00;;;26.50;30.30;;;22.64;41.12;96174.28;4933361;28;20045;-48
2022/07/17 19:20:39;;;;;;;3.50;2.30;;;26.30;30.40;;;22.47;41.45;96169.75;4973800;28;20018;-46
2022/07/17 19:23:07;;;;;;;6.18;2.20;;;26.20;30.70;;;22.30;41.79;96165.16;4969989;28;20477;-51
2022/07/17 19:25:38;;;;;;;2.58;1.92;;;26.00;31.00;;;22.13;42.63;96163.31;4968264;28;20117;-47
2022/07/17 19:28:05;;;;;;;3.72;2.08;;;25.80;31.60;;;21.95;43.28;96167.97;4969474;28;20392;-48
2022/07/17 19:30:33;;;;;;;4.95;2.17;;;25.60;31.80;;;21.78;44.03;96172.63;4987785;28;20033;-46
2022/07/17 19:33:06;;;;;;;6.15;2.55;;;25.50;32.20;;;21.59;44.25;96173.81;4972228;28;20574;-47
2022/07/17 19:35:32;;;;;;;2.33;2.08;;;25.30;32.70;;;21.45;44.36;96178.59;4973005;28;20027;-46
2022/07/17 19:37:57;;;;;;;2.58;2.28;;;25.10;32.80;;;21.27;44.12;96186.66;4973150;28;20041;-50
2022/07/17 19:40:31;;;;;;;4.40;2.25;;;24.90;33.00;;;21.11;44.69;96177.41;4939107;28;20497;-48
2022/07/17 19:42:57;;;;;;;4.28;2.30;;;24.80;33.50;;;21.01;44.24;96183.16;4953987;28;20185;-49
2022/07/17 19:45:25;;;;;;;3.75;2.15;;;24.60;33.50;;;20.86;44.58;96184.41;4953072;28;20098;-47
2022/07/17 19:47:51;;;;;;;4.70;1.95;;;24.50;33.70;;;20.72;45.54;96194.56;4953989;28;20058;-46
2022/07/17 19:50:17;;;;;;;4.03;2.05;;;24.30;33.90;;;20.61;45.52;96188.63;4965087;28;20550;-49
2022/07/17 19:52:43;;;;;;;4.47;2.08;;;24.20;34.20;;;20.46;45.20;96189.81;4967576;28;20030;-49
2022/07/17 19:55:09;;;;;;;5.32;1.63;;;24.10;34.40;;;20.32;45.93;96192.63;4971878;28;20072;-48
2022/07/17 19:57:36;;;;;;;4.88;2.20;;;23.90;34.50;;;20.18;46.73;96194.66;4952049;28;20038;-47
2022/07/17 20:00:06;;;;;;;2.33;2.00;;;23.80;34.80;;;20.07;46.11;96196.03;4956578;28;21132;-46
2022/07/17 20:02:32;;;;;;;2.15;1.92;;;23.70;35.10;;;20.00;46.68;96193.75;4970138;28;20062;-48
2022/07/17 20:04:58;;;;;;;3.53;2.10;;;23.60;35.20;;;19.85;46.56;96197.66;4963956;28;20050;-45
2022/07/17 20:07:25;;;;;;;3.15;2.10;;;23.50;35.40;;;19.83;45.99;96205.25;4974193;28;20053;-47
2022/07/17 20:09:52;;;;;;;3.20;1.90;;;23.40;35.60;;;19.77;46.07;96205.69;4960651;28;20026;-50
2022/07/17 20:12:20;;;;;;;3.10;2.05;;;23.30;35.60;;;19.67;46.67;96206.75;4957108;28;20021;-50
2022/07/17 20:14:46;;;;;;;5.90;2.15;;;23.20;35.90;;;19.65;47.17;96203.56;4964476;28;20117;-47
2022/07/17 20:17:13;;;;;;;3.85;2.00;;;23.10;36.10;;;19.58;47.92;96203.94;4971964;28;20156;-46
2022/07/17 20:19:39;;;;;;;2.15;1.92;;;23.10;36.30;;;19.53;46.99;96206.00;4972814;28;20029;-49
2022/07/17 20:22:06;;;;;;;3.28;1.92;;;23.10;36.50;;;19.48;46.96;96208.81;4969086;28;20096;-46
2022/07/17 20:24:33;;;;;;;2.13;1.92;;;23.00;37.10;;;19.40;47.59;96208.44;4953431;28;20026;-46
2022/07/17 20:27:00;;;;;;;2.53;2.33;;;22.90;36.60;;;19.33;47.56;96216.13;4952706;28;20110;-46
2022/07/17 20:29:27;;;;;;;5.15;2.10;;;22.80;36.70;;;19.26;47.95;96213.06;4953099;28;20045;-46
2022/07/17 20:31:53;;;;;;;3.45;1.85;;;22.80;36.90;;;19.21;47.55;96209.69;4953232;28;20030;-49
2022/07/17 20:34:25;;;;;;;8.68;1.80;;;22.80;37.00;;;19.12;47.75;96204.22;4964492;28;20496;-46
2022/07/17 20:36:53;;;;;;;4.15;1.75;;;22.70;37.30;;;19.07;48.22;96212.41;4970476;28;20039;-46
2022/07/17 20:39:19;;;;;;;2.88;1.92;;;22.60;37.20;;;18.93;48.92;96217.84;4970365;28;20389;-46
2022/07/17 20:41:44;;;;;;;7.15;1.95;;;22.60;37.40;;;18.78;49.40;96218.97;4969667;28;20041;-45
2022/07/17 20:44:10;;;;;;;10.70;2.45;;;22.40;37.50;;;18.73;49.45;96216.34;4952475;28;20058;-52
2022/07/17 20:46:42;;;;;;;6.90;2.22;;;22.40;37.70;;;18.63;49.49;96222.72;4960974;28;20374;-47
2022/07/17 20:49:08;;;;;;;7.03;2.38;;;22.30;38.00;;;18.60;49.95;96226.03;4963500;28;20449;-45
2022/07/17 20:51:33;;;;;;;3.03;2.20;;;22.20;38.00;;;18.56;49.49;96221.53;4969419;28;20030;-46
2022/07/17 20:54:02;;;;;;;2.55;2.10;;;22.20;38.20;;;18.57;49.26;96218.53;4964640;28;20019;-47
2022/07/17 20:56:31;;;;;;;4.22;1.95;;;22.10;38.40;;;18.60;49.45;96217.94;4967986;28;20117;-47
2022/07/17 20:59:14;;;;;;;5.65;2.20;;;22.10;38.60;;;18.59;49.38;96220.94;4953657;28;20027;-50
2022/07/17 21:01:49;;;;;;;4.15;2.17;;;22.10;38.80;;;18.57;48.87;96215.84;4972177;28;20061;-46
2022/07/17 21:04:15;;;;;;;4.03;2.22;;;22.00;38.80;;;18.50;49.67;96221.63;4971366;28;20532;-46
2022/07/17 21:06:44;;;;;;;2.30;2.03;;;22.00;38.70;;;18.42;50.06;96214.22;4972343;28;20042;-46
2022/07/17 21:09:10;;;;;;;2.42;2.20;;;22.00;38.80;;;18.37;50.17;96216.25;4955119;28;20047;-47
2022/07/17 21:11:35;;;;;;;2.10;1.90;;;21.90;38.80;;;18.31;50.27;96207.44;4971033;28;20029;-49
2022/07/17 21:14:10;;;;;;;2.05;1.83;;;21.90;39.00;;;18.24;50.78;96217.84;4972057;28;20378;-46
2022/07/17 21:16:39;;;;;;;3.15;2.35;;;21.80;39.30;;;18.14;51.18;96215.28;4954929;28;20436;-46
2022/07/17 21:19:05;;;;;;;3.13;2.00;;;21.80;39.30;;;18.10;50.98;96217.00;4970297;28;20049;-46
2022/07/17 21:21:31;;;;;;;3.03;1.88;;;21.70;39.30;;;18.06;51.39;96213.31;4969543;28;20022;-46
2022/07/17 21:23:57;;;;;;;2.95;1.80;;;21.70;39.40;;;18.10;50.75;96211.59;4983695;28;20113;-47
2022/07/17 21:26:23;;;;;;;3.15;1.95;;;21.70;39.50;;;18.30;47.35;96216.66;4951021;28;20114;-45
2022/07/17 21:28:52;;;;;;;2.97;1.92;;;21.70;39.40;;;18.65;48.32;96211.66;4952967;28;20030;-47
2022/07/17 21:31:24;;;;;;;2.67;2.22;;;21.70;39.30;;;18.75;47.01;96214.16;4951306;28;20039;-47
2022/07/17 21:33:55;;;;;;;3.53;2.28;;;21.80;39.40;;;18.82;48.58;96214.56;4951723;28;20025;-50
2022/07/17 21:36:24;;;;;;;3.03;2.40;;;21.90;39.40;;;18.72;48.87;96222.84;4958813;28;20043;-49
2022/07/17 21:38:56;;;;;;;4.68;2.13;;;21.90;39.30;;;18.65;48.66;96225.94;4952809;28;20026;-48
2022/07/17 21:41:22;;;;;;;4.70;2.33;;;21.90;39.20;;;18.63;48.48;96225.44;4952617;28;20031;-47
2022/07/17 21:43:57;;;;;;;2.88;2.28;;;22.00;39.30;;;18.69;47.73;96223.44;4952432;28;20022;-46
2022/07/17 21:46:23;;;;;;;2.42;1.85;;;22.00;39.30;;;18.77;47.72;96225.47;4951625;28;20258;-47
2022/07/17 21:48:53;;;;;;;3.05;2.15;;;22.00;39.10;;;18.79;46.55;96215.16;4974172;23;20096;-49
2022/07/17 21:51:25;;;;;;;2.83;1.98;;;22.00;39.00;;;18.89;47.45;96223.03;4931673;29;20078;-47
2022/07/17 21:53:56;;;;;;;3.67;2.00;;;22.10;39.00;;;18.90;46.96;96219.25;4939751;28;20029;-45
